Weather observations for the past three days for
MOUNT WILSON
Imperial (Metric)
Date Time (pdt) Wind (mph) Vis. (mi.) Weather Sky Cond. Temperature (ºF) Relative Humidity Wind Chill (°F) Heat Index (°F) Pressure Precipitation (in)
Air Dwpt 6 hour altimeter (in) sea level (mb) 1 hr 3 hr 6 hr
Max. Min.
06 07:20 N 2 0.00 NULL NULL 59 59 100% 0 0.0
06 06:20 SW 2 G 6 0.00 NULL NULL 59 57.2 94% 0 0.0
06 05:20 SW 3 0.00 NULL NULL 60.8 53.6 77% 0 0.0
06 04:20 SW 2 0.00 NULL NULL 60.8 51.8 72% 0 0.0
06 03:15 SW 5 G 7 0.00 NULL NULL 62.6 51.8 68% 0 0.0
06 02:20 SW 5 G 7 0.00 NULL NULL 62.6 51.8 68% 0 0.0
06 01:20 SW 7 G 8 0.00 NULL NULL 62.6 50 64% 0 0.0
06 00:20 SW 5 G 7 0.00 NULL NULL 62.6 50 64% 0 0.0
05 23:20 SW 5 G 6 0.00 NULL NULL 62.6 42.8 49% 0 0.0
05 22:20 SW 6 G 7 0.00 NULL NULL 62.6 42.8 49% 0 0.0
05 21:20 SW 3 G 7 0.00 NULL NULL 64.4 39.2 40% 0 0.0
05 20:20 SW 3 G 6 0.00 NULL NULL 66.2 37.4 35% 0 0.0
05 18:20 SW 2 G 6 0.00 NULL NULL 64.4 35.6 34% 0 0.0
05 17:20 SW 5 G 8 0.00 NULL NULL 66.2 37.4 35% 0 0.0
05 16:20 SW 7 0.00 NULL NULL 68 39.2 35% 0 0.0
05 15:20 SW 7 0.00 NULL NULL 73.4 41 31% 0 0.0
05 14:20 SW 7 0.00 NULL NULL 71.6 41 33% 0 0.0
05 10:20 SW 3 G 7 0.00 NULL NULL 64.4 33.8 32% 0 0.0
05 09:20 S 5 0.00 NULL NULL 62.6 33.8 34% 0 0.0
05 08:20 S 2 G 6 0.00 NULL NULL 60.8 32 34% 0 0.0
05 07:20 S 2 G 6 0.00 NULL NULL 57.2 30.2 36% 0 0.0
05 06:15 S 5 G 6 0.00 NULL NULL 57.2 30.2 36% 0 0.0
05 05:20 SW 6 G 7 0.00 NULL NULL 57.2 30.2 36% 0 0.0
05 04:20 S 1 0.00 NULL NULL 57.2 30.2 36% 0 0.0
05 03:20 S 1 0.00 NULL NULL 57.2 30.2 36% 0 0.0
05 02:20 SW 3 G 6 0.00 NULL NULL 57.2 30.2 36% 0 0.0
05 01:20 SW 5 G 7 0.00 NULL NULL 57.2 28.4 33% 0 0.0
05 00:20 SW 6 0.00 NULL NULL 59 30.2 34% 0 0.0
04 23:20 SW 6 G 8 0.00 NULL NULL 59 30.2 34% 0 0.0
04 22:20 SW 6 G 8 0.00 NULL NULL 59 26.6 29% 0 0.0
04 21:20 SW 6 G 8 0.00 NULL NULL 59 32 36% 0 0.0
04 20:20 SW 5 G 6 0.00 NULL NULL 59 35.6 42% 0 0.0
04 19:20 SW 6 G 8 0.00 NULL NULL 60.8 37.4 42% 0 0.0
04 18:20 SW 6 0.00 NULL NULL 60.8 44.6 55% 0 0.0
04 17:20 SW 7 0.00 NULL NULL 64.4 48.2 56% 0 0.0
04 16:20 SW 7 G 12 0.00 NULL NULL 64.4 48.2 56% 0 0.0
04 15:20 SW 7 G 12 0.00 NULL NULL 66.2 48.2 52% 0 0.0
04 14:20 SW 6 0.00 NULL NULL 66.2 51.8 60% 0 0.0
04 13:20 SW 5 G 7 0.00 NULL NULL 66.2 50 56% 0 0.0
04 12:20 SW 3 G 6 0.00 NULL NULL 64.4 53.6 68% 0 0.0
04 11:20 SW 3 G 6 0.00 NULL NULL 62.6 50 64% 0 0.0
04 10:10 SW 3 0.00 NULL NULL 60.8 35.6 39% 0 0.0
04 09:20 SW 2 0.00 NULL NULL 60.8 28.4 29% 0 0.0
04 08:20 SW 5 G 6 0.00 NULL NULL 59 26.6 29% 0 0.0
04 07:20 S 3 0.00 NULL NULL 57.2 14 18% 0 0.0
04 06:20 S 3 0.00 NULL NULL 57.2 12.2 17% 0 0.0
04 05:20 SW 5 G 6 0.00 NULL NULL 57.2 10.4 15% 0 0.0
04 04:20 S 3 0.00 NULL NULL 55.4 10.4 16% 0 0.0
04 03:20 SW 3 G 6 0.00 NULL NULL 55.4 15.8 21% 0 0.0
04 02:20 SW 5 G 6 0.00 NULL NULL 57.2 14 18% 0 0.0
04 01:20 S 7 0.00 NULL NULL 57.2 10.4 15% 0 0.0
04 00:20 S 2 0.00 NULL NULL 57.2 19.4 23% 0 0.0
03 23:20 S 3 G 7 0.00 NULL NULL 57.2 21.2 25% 0 0.0
03 22:20 S 6 0.00 NULL NULL 59 28.4 31% 0 0.0
03 21:20 S 5 G 7 0.00 NULL NULL 59 37.4 45% 0 0.0
03 20:20 SW 1 G 6 0.00 NULL NULL 59 42.8 55% 0 0.0
03 19:20 S 2 0.00 NULL NULL 60.8 32 34% 0 0.0
03 18:20 W 2 0.00 NULL NULL 62.6 53.6 73% 0 0.0
03 17:20 SW 5 G 6 0.00 NULL NULL 64.4 55.4 73% 0 0.0
03 16:20 S 6 G 8 0.00 NULL NULL 64.4 53.6 68% 0 0.0
03 15:20 SW 7 0.00 NULL NULL 66.2 51.8 60% 0 0.0
03 14:20 SW 6 0.00 NULL NULL 62.6 51.8 68% 0 0.0
03 13:20 SW 3 G 7 0.00 NULL NULL 66.2 51.8 60% 0 0.0
03 12:20 SW 3 0.00 NULL NULL 62.6 51.8 68% 0 0.0
03 11:20 W 2 0.00 NULL NULL 62.6 44.6 52% 0 0.0
03 10:20 SW 2 0.00 NULL NULL 62.6 39.2 42% 0 0.0
03 09:20 W 2 0.00 NULL NULL 59 37.4 45% 0 0.0
03 08:15 SW 3 0.00 NULL NULL 57.2 41 55% 0 0.0
Date Time (pdt) Wind (mph) Vis. (mi.) Weather Sky Cond. Air Dwpt Max. Min. Relative Humidity Wind Chill (°F) Heat Index (°F) altimeter (in) sea level (mb) 1 hr 3 hr 6 hr
6 hour
Temperature (ºF) Pressure Precipitation (in)